Friday, November 28, 2014, 5:41 AM EST
Back to Local

KCXY, Harrisburg Capital City

Location: New Cumberland, PA, United States Lat: 40.217
Local Time: 5:41 AM EST (10:41 GMT) Lon: -76.85
Time Zone: US/Eastern Elev: 347 ft

Show me the last for .
Show Decoded

2014-11-28 04:56 METAR KCXY 280956Z AUTO 27010G19KT 10SM CLR 00/M06 A3017 RMK AO2 SLP222
                 T00001061 =
2014-11-28 03:56 METAR KCXY 280856Z AUTO 27012KT 10SM CLR 01/M06 A3015 RMK AO2 SLP215 T00061056
                 51004 =
2014-11-28 02:56 METAR KCXY 280756Z AUTO 27006KT 10SM FEW039 00/M06 A3015 RMK AO2 SLP214
                 T00001056 =
2014-11-28 01:56 METAR KCXY 280656Z AUTO 29008KT 10SM BKN040 01/M06 A3015 RMK AO2 SLP215
                 T00061056 =
2014-11-28 00:56 METAR KCXY 280556Z AUTO 29008KT 10SM FEW037 01/M05 A3014 RMK AO2 SLP210
                 T00061050 10017 21006 51005 =
2014-11-27 23:56 METAR KCXY 280456Z AUTO 28009G18KT 10SM BKN090 01/M04 A3014 RMK AO2 SLP210
                 T00111044 400331006 =
2014-11-27 22:56 METAR KCXY 280356Z AUTO 25006KT 10SM FEW065 OVC090 01/M03 A3013 RMK AO2 SLP206
                 T00111028 =
2014-11-27 21:56 METAR KCXY 280256Z AUTO 27005KT 9SM SCT055 OVC085 01/M02 A3012 RMK AO2 SLP205
                 T00111017 51008 =
2014-11-27 20:56 METAR KCXY 280156Z AUTO 25005KT 8SM FEW065 OVC085 01/M01 A3012 RMK AO2 SLP203
                 T00061011 =
2014-11-27 19:56 METAR KCXY 280056Z AUTO 24003KT 7SM BKN085 00/M01 A3011 RMK AO2 SLP201 T00001011
                 =
2014-11-27 18:56 METAR KCXY 272356Z AUTO 00000KT 10SM OVC070 01/M01 A3010 RMK AO2 SLP196 60000
                 T00061011 10033 20006 51014 =
2014-11-27 17:56 METAR KCXY 272256Z AUTO 28004KT 10SM OVC070 02/M01 A3009 RMK AO2 RAB02E29SNE02
                 SLP193 P0000 T00171011 =
2014-11-27 16:56 METAR KCXY 272156Z AUTO 33007KT 7SM -SN SCT034 BKN042 OVC055 03/M01 A3008 RMK
                 AO2 RAB45E48SNB48 SLP190 P0000 T00281011 =
2014-11-27 15:56 METAR KCXY 272056Z AUTO 28003KT 10SM FEW039 FEW048 OVC070 03/M02 A3006 RMK AO2
                 SLP183 T00281022 51006 =
2014-11-27 14:56 METAR KCXY 271956Z 29003KT 10SM FEW040 BKN070 03/M03 A3005 RMK AO2 SLP182
                 T00281028 =
2014-11-27 13:56 METAR KCXY 271856Z 29005KT 10SM FEW027 BKN033 OVC041 03/M03 A3004 RMK AO2 SLP178
                 T00281028 =
2014-11-27 12:56 METAR KCXY 271756Z 28006KT 10SM BKN034 OVC055 02/M02 A3004 RMK AO2 SLP176
                 T00221022 10028 20006 58004 =
2014-11-27 11:56 METAR KCXY 271656Z 31008KT 10SM OVC060 03/M03 A3005 RMK AO2 SLP178 T00281028 =
2014-11-27 10:56 METAR KCXY 271556Z 31005KT 10SM FEW023 BKN033 OVC060 03/M02 A3005 RMK AO2 SLP181
                 T00281022 =
2014-11-27 09:56 METAR KCXY 271456Z 29005KT 10SM OVC060 02/M02 A3005 RMK AO2 SLP180 T00221017
                 51012 =
2014-11-27 08:56 METAR KCXY 271356Z 25003KT 10SM OVC060 01/M02 A3005 RMK AO2 SLP179 T00111017 =
2014-11-27 07:56 METAR KCXY 271256Z 25006KT 10SM OVC065 01/M02 A3004 RMK AO2 SLP176 T00061017 =
2014-11-27 06:56 METAR KCXY 271156Z 26004KT 10SM BKN075 01/M02 A3002 RMK AO2 SLP169 70053
                 T00061022 10017 20006 53009 =
2014-11-27 05:56 METAR KCXY 271056Z AUTO 29005KT 10SM OVC070 01/M02 A3000 RMK AO2 SLP164
                 T00111022 =

Support USWX by starting your Amazon purchase here.